createdAt,value
2018-08-31T00:00:34.691Z,2.80
2018-08-31T00:03:03.377Z,2.40
2018-08-31T00:05:45.477Z,2.40
2018-08-31T00:09:27.830Z,3.13
2018-08-31T00:12:36.520Z,2.30
2018-08-31T00:15:05.153Z,2.10
2018-08-31T00:17:33.609Z,2.37
2018-08-31T00:20:02.896Z,2.50
2018-08-31T00:22:31.322Z,2.50
2018-08-31T00:25:16.600Z,2.63
2018-08-31T00:27:56.294Z,2.67
2018-08-31T00:30:35.912Z,2.30
2018-08-31T00:33:46.948Z,2.00
2018-08-31T00:37:22.680Z,2.67
2018-08-31T00:40:04.994Z,2.33
2018-08-31T00:42:44.773Z,2.33
2018-08-31T00:45:31.321Z,2.60
2018-08-31T00:48:00.425Z,2.37
2018-08-31T00:50:30.721Z,2.20
2018-08-31T00:52:59.538Z,2.70
2018-08-31T00:55:28.960Z,2.60
2018-08-31T00:57:57.464Z,2.20
2018-08-31T01:00:25.951Z,2.57
2018-08-31T01:02:54.380Z,2.30
2018-08-31T01:05:22.795Z,2.33
2018-08-31T01:07:51.243Z,2.73
2018-08-31T01:10:22.593Z,3.10
2018-08-31T01:12:52.174Z,2.43
2018-08-31T01:15:20.602Z,2.47
2018-08-31T01:17:48.977Z,2.37
2018-08-31T01:20:17.386Z,2.50
2018-08-31T01:22:45.852Z,2.60
2018-08-31T01:25:14.332Z,2.70
2018-08-31T01:27:42.785Z,2.87
2018-08-31T01:30:11.257Z,2.77
2018-08-31T01:32:39.719Z,2.83
2018-08-31T01:35:08.162Z,2.50
2018-08-31T01:37:36.530Z,2.73
2018-08-31T01:40:05.054Z,2.70
2018-08-31T01:42:33.533Z,2.73
2018-08-31T01:45:02.053Z,2.50
2018-08-31T01:47:30.508Z,2.47
2018-08-31T01:49:58.928Z,2.37
2018-08-31T01:52:27.361Z,2.33
2018-08-31T01:54:56.595Z,3.30
2018-08-31T01:57:24.991Z,2.37
2018-08-31T01:59:54.171Z,3.00
2018-08-31T02:02:23.872Z,2.87
2018-08-31T02:04:53.179Z,2.87
2018-08-31T02:07:21.599Z,2.80
2018-08-31T02:09:51.019Z,2.60
2018-08-31T02:12:20.944Z,2.97
2018-08-31T02:14:49.371Z,2.40
2018-08-31T02:17:17.784Z,2.83
2018-08-31T02:19:46.188Z,2.90
2018-08-31T02:22:14.980Z,2.70
2018-08-31T02:24:43.393Z,2.43
2018-08-31T02:27:11.836Z,2.73
2018-08-31T02:29:40.244Z,2.70
2018-08-31T02:32:08.731Z,3.00
2018-08-31T02:34:37.113Z,2.70
2018-08-31T02:37:05.627Z,2.50
2018-08-31T02:39:34.016Z,2.37
2018-08-31T02:42:02.992Z,2.60
2018-08-31T02:44:31.405Z,2.40
2018-08-31T02:46:59.794Z,3.63
2018-08-31T02:49:28.229Z,2.50
2018-08-31T02:51:56.733Z,2.80
2018-08-31T02:54:25.140Z,2.30
2018-08-31T02:56:53.544Z,2.30
2018-08-31T02:59:21.948Z,3.20
2018-08-31T03:01:51.784Z,2.60
2018-08-31T03:04:20.244Z,2.87
2018-08-31T03:06:48.664Z,2.63
2018-08-31T03:09:17.116Z,2.50
2018-08-31T03:11:46.400Z,2.73
2018-08-31T03:14:14.831Z,2.53
2018-08-31T03:16:43.229Z,2.60
2018-08-31T03:19:11.683Z,2.50
2018-08-31T03:21:40.098Z,2.70
2018-08-31T03:24:08.508Z,2.40
2018-08-31T03:26:37.190Z,2.83
2018-08-31T03:29:05.709Z,2.27
2018-08-31T03:31:34.082Z,2.50
2018-08-31T03:34:02.490Z,2.50
2018-08-31T03:36:31.133Z,2.70
2018-08-31T03:38:59.556Z,2.70
2018-08-31T03:41:27.972Z,2.37
2018-08-31T03:43:56.416Z,2.20
2018-08-31T03:46:24.855Z,2.47
2018-08-31T03:48:53.262Z,3.03
2018-08-31T03:51:21.713Z,2.10
2018-08-31T03:53:50.131Z,2.30
2018-08-31T03:56:18.563Z,2.17
2018-08-31T03:58:46.997Z,2.83
2018-08-31T04:01:15.467Z,2.73
2018-08-31T04:03:43.921Z,2.30
2018-08-31T04:06:12.553Z,2.10
2018-08-31T04:08:40.968Z,2.90
2018-08-31T04:11:09.402Z,2.47
2018-08-31T04:13:37.832Z,2.50
2018-08-31T04:16:06.273Z,2.20
2018-08-31T04:18:34.741Z,2.43
2018-08-31T04:21:03.182Z,2.00
2018-08-31T04:23:31.615Z,2.30
2018-08-31T04:26:00.056Z,2.13
2018-08-31T04:28:28.484Z,2.40
2018-08-31T04:30:56.953Z,3.13
2018-08-31T04:33:25.388Z,2.40
2018-08-31T04:35:53.801Z,2.87
2018-08-31T04:38:22.248Z,2.53
2018-08-31T04:40:50.701Z,2.97
2018-08-31T04:43:19.113Z,2.70
2018-08-31T04:45:47.611Z,2.20
2018-08-31T04:48:16.020Z,2.47
2018-08-31T04:50:44.472Z,2.73
2018-08-31T04:53:12.887Z,2.47
2018-08-31T04:55:41.332Z,2.30
2018-08-31T04:58:09.725Z,2.20
2018-08-31T05:00:38.143Z,2.00
2018-08-31T05:03:06.568Z,2.37
2018-08-31T05:05:34.970Z,2.10
2018-08-31T05:08:03.420Z,2.53
2018-08-31T05:10:31.845Z,2.77
2018-08-31T05:13:00.231Z,2.30
2018-08-31T05:15:28.708Z,2.37
2018-08-31T05:17:57.096Z,2.70
2018-08-31T05:20:25.563Z,2.70
2018-08-31T05:22:54.076Z,3.27
2018-08-31T05:25:22.452Z,3.00
2018-08-31T05:27:50.859Z,2.03
2018-08-31T05:30:19.305Z,7.00
2018-08-31T05:32:47.735Z,4.00
2018-08-31T05:35:16.196Z,3.20
2018-08-31T05:37:44.603Z,2.60
2018-08-31T05:40:13.201Z,3.70
2018-08-31T05:42:41.668Z,2.70
2018-08-31T05:45:10.155Z,2.60
2018-08-31T05:47:38.910Z,3.10
2018-08-31T05:50:07.384Z,2.50
2018-08-31T05:52:35.797Z,2.53
2018-08-31T05:55:04.264Z,2.40
2018-08-31T05:57:32.722Z,2.40
2018-08-31T06:00:01.165Z,3.17
2018-08-31T06:02:29.629Z,2.80
2018-08-31T06:04:58.076Z,3.63
2018-08-31T06:07:26.474Z,2.50
2018-08-31T06:09:54.927Z,3.60
2018-08-31T06:12:23.304Z,2.40
2018-08-31T06:14:51.720Z,2.83
2018-08-31T06:17:20.129Z,3.10
2018-08-31T06:19:48.580Z,3.47
2018-08-31T06:22:17.022Z,2.90
2018-08-31T06:24:45.485Z,3.07
2018-08-31T06:27:13.985Z,3.00
2018-08-31T06:29:42.306Z,3.10
2018-08-31T06:32:10.766Z,3.07
2018-08-31T06:34:39.234Z,3.03
2018-08-31T06:37:07.861Z,3.10
2018-08-31T06:39:36.338Z,3.50
2018-08-31T06:42:04.753Z,3.30
2018-08-31T06:44:33.139Z,2.90
2018-08-31T06:47:01.573Z,3.30
2018-08-31T06:49:29.973Z,3.10
2018-08-31T06:51:58.358Z,2.70
2018-08-31T06:54:26.824Z,3.07
2018-08-31T06:56:55.319Z,2.87
2018-08-31T06:59:23.760Z,2.87
2018-08-31T07:01:52.259Z,3.43
2018-08-31T07:04:20.703Z,3.13
2018-08-31T07:06:49.159Z,3.47
2018-08-31T07:09:17.659Z,3.30
2018-08-31T07:11:46.058Z,3.30
2018-08-31T07:14:14.508Z,3.73
2018-08-31T07:16:42.919Z,3.17
2018-08-31T07:19:11.392Z,4.40
2018-08-31T07:21:39.763Z,3.30
2018-08-31T07:24:08.239Z,3.10
2018-08-31T07:26:36.695Z,2.57
2018-08-31T07:29:05.825Z,2.90
2018-08-31T07:31:34.284Z,3.00
2018-08-31T07:34:03.279Z,2.60
2018-08-31T07:36:31.740Z,2.93
2018-08-31T07:39:00.226Z,2.33
2018-08-31T07:41:29.028Z,2.33
2018-08-31T07:43:57.442Z,2.83
2018-08-31T07:46:25.875Z,2.70
2018-08-31T07:48:55.344Z,2.40
2018-08-31T07:51:23.798Z,2.40
2018-08-31T07:53:52.252Z,3.47
2018-08-31T07:56:20.695Z,2.10
2018-08-31T07:58:49.245Z,2.17
2018-08-31T08:01:17.871Z,2.77
2018-08-31T08:03:46.330Z,2.60
2018-08-31T08:06:14.812Z,2.77
2018-08-31T08:08:43.294Z,2.83
2018-08-31T08:11:11.744Z,2.67
2018-08-31T08:13:40.222Z,2.27
2018-08-31T08:16:08.691Z,2.50
2018-08-31T08:18:37.078Z,2.50
2018-08-31T08:21:05.889Z,3.10
2018-08-31T08:23:34.405Z,2.60
2018-08-31T08:26:02.916Z,2.17
2018-08-31T08:28:31.380Z,2.03
2018-08-31T08:30:59.789Z,1.70
2018-08-31T08:33:28.216Z,2.30
2018-08-31T08:35:56.709Z,2.10
2018-08-31T08:38:25.151Z,2.47
2018-08-31T08:40:53.684Z,1.90
2018-08-31T08:43:22.117Z,1.70
2018-08-31T08:45:50.607Z,1.60
2018-08-31T08:48:19.112Z,2.03
2018-08-31T08:50:47.524Z,2.30
2018-08-31T08:53:15.994Z,1.80
2018-08-31T08:55:44.532Z,2.10
2018-08-31T08:58:13.025Z,1.87
2018-08-31T09:00:41.746Z,1.90
2018-08-31T09:03:10.299Z,2.03
2018-08-31T09:05:38.798Z,2.50
2018-08-31T09:08:07.126Z,2.90
2018-08-31T09:10:35.521Z,1.70
2018-08-31T09:13:03.982Z,2.07
2018-08-31T09:15:32.495Z,2.53
2018-08-31T09:18:00.968Z,2.00
2018-08-31T09:20:29.465Z,1.70
2018-08-31T09:22:57.944Z,1.87
2018-08-31T09:25:26.628Z,1.73
2018-08-31T09:27:55.104Z,1.70
2018-08-31T09:30:28.814Z,1.37
2018-08-31T09:32:57.325Z,1.30
2018-08-31T09:35:25.722Z,1.50
2018-08-31T09:37:54.169Z,1.90
2018-08-31T09:40:22.574Z,1.60
2018-08-31T09:42:51.003Z,1.63
2018-08-31T09:45:19.491Z,2.10
2018-08-31T09:47:48.544Z,1.67
2018-08-31T09:50:16.965Z,3.00
2018-08-31T09:52:45.453Z,1.50
2018-08-31T09:55:14.479Z,1.60
2018-08-31T09:57:43.023Z,2.43
2018-08-31T10:00:11.566Z,1.70
2018-08-31T10:02:44.185Z,1.20
2018-08-31T10:05:12.721Z,1.63
2018-08-31T10:07:41.180Z,1.77
2018-08-31T10:10:09.646Z,1.70
2018-08-31T10:12:38.072Z,1.60
2018-08-31T10:15:06.609Z,1.50
2018-08-31T10:17:35.040Z,1.30
2018-08-31T10:20:03.580Z,1.60
2018-08-31T10:22:32.061Z,1.90
2018-08-31T10:25:00.496Z,1.27
2018-08-31T10:27:28.947Z,1.40
2018-08-31T10:29:57.425Z,1.80
2018-08-31T10:32:25.865Z,2.17
2018-08-31T10:34:54.280Z,1.60
2018-08-31T10:37:22.729Z,1.50
2018-08-31T10:39:51.152Z,2.17
2018-08-31T10:42:19.613Z,2.20
2018-08-31T10:44:48.024Z,1.90
2018-08-31T10:47:16.522Z,3.07
2018-08-31T10:49:44.974Z,2.00
2018-08-31T10:52:13.762Z,1.50
2018-08-31T10:54:42.225Z,1.60
2018-08-31T10:57:10.636Z,1.73
2018-08-31T10:59:39.123Z,1.70
2018-08-31T11:02:07.536Z,1.87
2018-08-31T11:04:35.995Z,1.63
2018-08-31T11:07:04.404Z,1.60
2018-08-31T11:09:32.826Z,1.50
2018-08-31T11:12:01.265Z,1.63
2018-08-31T11:14:29.652Z,1.30
2018-08-31T11:16:58.041Z,1.60
2018-08-31T11:19:26.499Z,1.87
2018-08-31T11:21:54.896Z,1.50
2018-08-31T11:24:23.308Z,1.70
2018-08-31T11:26:51.706Z,1.70
2018-08-31T11:29:20.109Z,1.37
2018-08-31T11:31:48.568Z,2.10
2018-08-31T11:34:16.988Z,2.60
2018-08-31T11:36:45.523Z,2.30
2018-08-31T11:39:14.032Z,2.20
2018-08-31T11:41:42.467Z,1.87
2018-08-31T11:44:10.967Z,2.50
2018-08-31T11:46:39.421Z,1.83
2018-08-31T11:49:07.817Z,1.77
2018-08-31T11:51:36.253Z,2.10
2018-08-31T11:54:04.692Z,2.23
2018-08-31T11:56:33.159Z,2.90
2018-08-31T11:59:01.693Z,1.77
2018-08-31T12:01:30.158Z,1.87
2018-08-31T12:03:58.593Z,2.53
2018-08-31T12:06:27.019Z,2.00
2018-08-31T12:08:55.491Z,1.87
2018-08-31T12:11:23.940Z,2.27
2018-08-31T12:13:52.465Z,2.10
2018-08-31T12:16:20.929Z,1.60
2018-08-31T12:18:49.356Z,1.73
2018-08-31T12:21:17.820Z,1.20
2018-08-31T12:23:46.502Z,1.50
2018-08-31T12:26:15.031Z,1.60
2018-08-31T12:28:43.717Z,1.67
2018-08-31T12:31:13.010Z,1.70
2018-08-31T12:33:41.847Z,2.27
2018-08-31T12:36:10.439Z,2.23
2018-08-31T12:38:39.224Z,1.70
2018-08-31T12:41:07.896Z,2.00
2018-08-31T12:46:17.807Z,1.70
2018-08-31T12:48:46.694Z,2.23
2018-08-31T12:51:15.704Z,1.40
2018-08-31T12:53:44.162Z,1.73
2018-08-31T12:56:12.749Z,1.50
2018-08-31T12:58:41.246Z,1.97
2018-08-31T13:01:09.740Z,1.77
2018-08-31T13:03:38.124Z,1.43
2018-08-31T13:06:06.536Z,1.47
2018-08-31T13:08:34.998Z,1.70
2018-08-31T13:11:03.480Z,1.87
2018-08-31T13:13:31.873Z,1.47
2018-08-31T13:16:00.335Z,1.60
2018-08-31T13:18:28.834Z,1.80
2018-08-31T13:20:57.312Z,1.70
2018-08-31T13:23:25.780Z,1.83
2018-08-31T13:25:54.243Z,2.40
2018-08-31T13:28:22.757Z,2.00
2018-08-31T13:30:51.227Z,2.10
2018-08-31T13:33:19.730Z,2.17
2018-08-31T13:35:48.193Z,1.70
2018-08-31T13:38:16.628Z,2.60
2018-08-31T13:40:45.069Z,2.10
2018-08-31T13:43:13.517Z,1.90
2018-08-31T13:45:41.984Z,2.03
2018-08-31T13:48:10.440Z,1.93
2018-08-31T13:50:38.857Z,2.47
2018-08-31T13:53:07.298Z,2.63
2018-08-31T13:55:35.707Z,1.93
2018-08-31T13:58:04.140Z,2.30
2018-08-31T14:00:32.524Z,2.27
2018-08-31T14:03:00.931Z,2.07
2018-08-31T14:05:29.346Z,2.27
2018-08-31T14:07:57.840Z,1.70
2018-08-31T14:10:26.321Z,2.07
2018-08-31T14:12:54.967Z,2.10
2018-08-31T14:15:23.348Z,1.60
2018-08-31T14:17:51.752Z,1.90
2018-08-31T14:20:21.165Z,1.70
2018-08-31T14:22:49.590Z,1.83
2018-08-31T14:25:18.055Z,1.70
2018-08-31T14:27:46.480Z,1.83
2018-08-31T14:30:14.965Z,2.00
2018-08-31T14:32:43.412Z,1.67
2018-08-31T14:35:11.873Z,2.00
2018-08-31T14:37:40.298Z,1.70
2018-08-31T14:40:09.536Z,1.97
2018-08-31T14:42:38.089Z,2.00
2018-08-31T14:45:07.174Z,1.73
2018-08-31T14:47:35.677Z,1.90
2018-08-31T14:50:04.659Z,2.33
2018-08-31T14:52:33.028Z,1.93
2018-08-31T14:55:01.482Z,2.07
2018-08-31T14:57:29.887Z,1.50
2018-08-31T14:59:59.556Z,1.60
2018-08-31T15:02:28.022Z,1.70
2018-08-31T15:04:56.439Z,1.80
2018-08-31T15:07:25.718Z,1.90
2018-08-31T15:09:54.105Z,2.00
2018-08-31T15:12:22.818Z,1.60
2018-08-31T15:14:51.810Z,1.70
2018-08-31T15:17:20.245Z,1.87
2018-08-31T15:19:48.775Z,1.60
2018-08-31T15:22:17.239Z,3.30
2018-08-31T15:24:45.653Z,2.20
2018-08-31T15:27:14.082Z,2.00
2018-08-31T15:29:42.576Z,1.60
2018-08-31T15:32:11.000Z,1.80
2018-08-31T15:34:39.472Z,1.80
2018-08-31T15:37:08.924Z,1.80
2018-08-31T15:39:37.362Z,1.83
2018-08-31T15:42:06.034Z,1.57
2018-08-31T15:44:34.524Z,1.83
2018-08-31T15:47:02.978Z,1.70
2018-08-31T15:49:31.456Z,1.70
2018-08-31T15:51:59.810Z,2.00
2018-08-31T15:54:28.264Z,1.60
2018-08-31T15:56:56.701Z,1.80
2018-08-31T15:59:25.245Z,1.63
2018-08-31T16:01:53.706Z,1.70
2018-08-31T16:04:22.176Z,1.73
2018-08-31T16:06:50.589Z,1.70
2018-08-31T16:09:19.045Z,2.27
2018-08-31T16:11:47.457Z,1.63
2018-08-31T16:14:16.024Z,1.60
2018-08-31T16:16:44.448Z,1.80
2018-08-31T16:19:12.920Z,1.87
2018-08-31T16:21:41.443Z,1.87
2018-08-31T16:24:09.878Z,1.80
2018-08-31T16:26:38.912Z,1.70
2018-08-31T16:29:07.433Z,1.87
2018-08-31T16:31:35.852Z,1.90
2018-08-31T16:34:04.269Z,1.83
2018-08-31T16:36:32.705Z,1.90
2018-08-31T16:39:01.284Z,1.70
2018-08-31T16:41:29.633Z,1.97
2018-08-31T16:43:58.040Z,1.63
2018-08-31T16:46:26.518Z,1.80
2018-08-31T16:48:54.906Z,1.83
2018-08-31T16:51:23.352Z,1.70
2018-08-31T16:53:51.835Z,1.63
2018-08-31T16:56:20.273Z,1.57
2018-08-31T16:58:48.708Z,1.47
2018-08-31T17:01:17.168Z,1.50
2018-08-31T17:03:46.116Z,1.80
2018-08-31T17:06:14.540Z,2.03
2018-08-31T17:08:42.937Z,2.00
2018-08-31T17:11:11.360Z,1.50
2018-08-31T17:13:39.745Z,1.63
2018-08-31T17:16:08.188Z,2.13
2018-08-31T17:18:36.597Z,1.83
2018-08-31T17:21:05.111Z,1.90
2018-08-31T17:23:33.532Z,1.90
2018-08-31T17:26:01.957Z,1.83
2018-08-31T17:28:35.615Z,1.97
2018-08-31T17:33:13.654Z,1.87
2018-08-31T17:35:48.066Z,1.90
2018-08-31T17:38:16.555Z,1.83
2018-08-31T17:40:44.984Z,2.57
2018-08-31T17:43:13.477Z,2.40
2018-08-31T17:45:41.892Z,2.20
2018-08-31T17:48:10.358Z,1.57
2018-08-31T17:50:38.792Z,1.77
2018-08-31T17:53:07.232Z,1.40
2018-08-31T17:55:35.654Z,2.03
2018-08-31T17:58:04.121Z,1.93
2018-08-31T18:00:32.580Z,1.60
2018-08-31T18:03:01.009Z,2.00
2018-08-31T18:05:29.452Z,1.70
2018-08-31T18:07:57.857Z,1.50
2018-08-31T18:10:26.288Z,2.23
2018-08-31T18:12:54.701Z,1.93
2018-08-31T18:15:23.161Z,2.83
2018-08-31T18:17:51.557Z,2.53
2018-08-31T18:20:19.988Z,2.10
2018-08-31T18:22:48.451Z,2.20
2018-08-31T18:25:17.480Z,1.60
2018-08-31T18:27:45.885Z,2.17
2018-08-31T18:30:14.353Z,1.90
2018-08-31T18:32:42.778Z,2.40
2018-08-31T18:35:11.216Z,2.67
2018-08-31T18:37:39.673Z,2.50
2018-08-31T18:40:08.215Z,3.30
2018-08-31T18:42:36.648Z,2.40
2018-08-31T18:45:05.109Z,2.40
2018-08-31T18:47:33.550Z,2.30
2018-08-31T18:50:01.993Z,2.83
2018-08-31T18:52:30.435Z,2.57
2018-08-31T18:54:58.847Z,2.50
2018-08-31T18:57:27.340Z,4.40
2018-08-31T18:59:55.751Z,2.90
2018-08-31T19:02:24.152Z,2.73
2018-08-31T19:04:52.640Z,2.70
2018-08-31T19:07:21.122Z,2.83
2018-08-31T19:09:49.583Z,2.90
2018-08-31T19:12:18.061Z,4.43
2018-08-31T19:14:46.494Z,4.23
2018-08-31T19:17:14.968Z,4.60
2018-08-31T19:19:43.418Z,4.67
2018-08-31T19:22:11.821Z,3.23
2018-08-31T19:24:40.305Z,4.17
2018-08-31T19:27:08.813Z,3.93
2018-08-31T19:29:37.276Z,3.67
2018-08-31T19:32:05.749Z,3.70
2018-08-31T19:34:34.220Z,4.67
2018-08-31T19:37:02.630Z,5.43
2018-08-31T19:39:31.097Z,6.10
2018-08-31T19:41:59.616Z,5.97
2018-08-31T19:44:27.993Z,9.27
2018-08-31T19:46:56.451Z,9.70
2018-08-31T19:49:24.886Z,8.43
2018-08-31T19:51:53.391Z,10.87
2018-08-31T19:54:21.865Z,9.23
2018-08-31T19:56:50.358Z,8.90
2018-08-31T19:59:18.801Z,7.77
2018-08-31T20:01:47.217Z,9.17
2018-08-31T20:04:15.687Z,8.10
2018-08-31T20:06:44.213Z,4.70
2018-08-31T20:09:12.685Z,3.40
2018-08-31T20:11:41.113Z,3.37
2018-08-31T20:14:09.645Z,2.17
2018-08-31T20:16:38.468Z,2.63
2018-08-31T20:19:06.952Z,2.37
2018-08-31T20:21:35.371Z,2.50
2018-08-31T20:24:03.988Z,3.90
2018-08-31T20:26:32.313Z,3.30
2018-08-31T20:29:00.769Z,2.77
2018-08-31T20:31:29.161Z,3.23
2018-08-31T20:33:57.628Z,4.40
2018-08-31T20:36:26.069Z,4.47
2018-08-31T20:38:54.602Z,2.33
2018-08-31T20:41:22.893Z,2.20
2018-08-31T20:43:51.348Z,2.30
2018-08-31T20:46:19.764Z,4.43
2018-08-31T20:48:48.180Z,3.40
2018-08-31T20:51:16.635Z,3.20
2018-08-31T20:53:45.158Z,2.80
2018-08-31T20:56:13.584Z,4.17
2018-08-31T20:58:42.075Z,4.50
2018-08-31T21:01:10.467Z,4.30
2018-08-31T21:03:38.916Z,4.47
2018-08-31T21:06:07.444Z,3.37
2018-08-31T21:08:35.872Z,2.53
2018-08-31T21:11:04.337Z,2.70
2018-08-31T21:13:32.770Z,2.30
2018-08-31T21:16:01.241Z,2.57
2018-08-31T21:18:29.654Z,3.00
2018-08-31T21:20:58.088Z,3.10
2018-08-31T21:23:26.554Z,3.40
2018-08-31T21:25:55.064Z,3.47
2018-08-31T21:28:23.513Z,3.57
2018-08-31T21:30:52.056Z,2.97
2018-08-31T21:33:20.480Z,2.70
2018-08-31T21:35:48.917Z,2.63
2018-08-31T21:38:17.337Z,1.83
2018-08-31T21:40:45.777Z,1.90
2018-08-31T21:43:14.264Z,2.47
2018-08-31T21:45:42.747Z,3.17
2018-08-31T21:48:11.233Z,2.60
2018-08-31T21:50:39.657Z,3.10
2018-08-31T21:53:08.150Z,3.80
2018-08-31T21:55:36.560Z,3.50
2018-08-31T21:58:05.010Z,2.50
2018-08-31T22:00:37.592Z,2.77
2018-08-31T22:03:06.036Z,3.57
2018-08-31T22:05:34.572Z,2.90
2018-08-31T22:08:03.040Z,3.63
2018-08-31T22:10:32.569Z,6.10
2018-08-31T22:13:00.992Z,5.70
2018-08-31T22:15:29.479Z,3.20
2018-08-31T22:17:58.396Z,3.53
2018-08-31T22:20:26.842Z,3.30
2018-08-31T22:22:55.441Z,3.40
2018-08-31T22:25:24.771Z,2.80
2018-08-31T22:27:53.272Z,2.43
2018-08-31T22:30:21.753Z,3.30
2018-08-31T22:32:50.146Z,2.40
2018-08-31T22:35:18.580Z,2.23
2018-08-31T22:37:47.724Z,4.10
2018-08-31T22:40:16.228Z,3.03
2018-08-31T22:42:44.664Z,4.13
2018-08-31T22:45:13.722Z,3.70
2018-08-31T22:47:42.937Z,2.50
2018-08-31T22:50:11.916Z,2.30
2018-08-31T22:52:40.377Z,2.20
2018-08-31T22:55:09.007Z,3.00
2018-08-31T22:57:37.512Z,2.70
2018-08-31T23:00:06.080Z,2.53
2018-08-31T23:02:35.247Z,2.00
2018-08-31T23:05:04.048Z,1.80
2018-08-31T23:07:37.724Z,2.00
2018-08-31T23:10:06.402Z,1.90
2018-08-31T23:12:34.898Z,2.10
2018-08-31T23:15:03.354Z,2.30
2018-08-31T23:17:31.748Z,2.10
2018-08-31T23:20:00.524Z,3.00
2018-08-31T23:22:29.840Z,2.97
2018-08-31T23:25:00.779Z,2.40
2018-08-31T23:27:29.963Z,2.10
2018-08-31T23:29:58.554Z,2.10
2018-08-31T23:32:27.342Z,2.40
2018-08-31T23:34:56.241Z,2.20
2018-08-31T23:37:24.641Z,3.33
2018-08-31T23:39:53.060Z,2.40
2018-08-31T23:42:21.437Z,1.80
2018-08-31T23:44:49.872Z,1.90
2018-08-31T23:47:18.307Z,2.40
2018-08-31T23:49:46.709Z,2.90
2018-08-31T23:52:15.114Z,2.70
2018-08-31T23:54:43.546Z,2.77
2018-08-31T23:57:12.025Z,2.33
2018-08-31T23:59:40.445Z,2.17
